Ana Sayfa
METAR-TAF:

METAR-TAF

Havaalanları :

Great Barrier Reef Airport

Hamilton Adası, Avustralya

Enlem: 20-21-29S, Boylam: 148-57-06E, yükseklik: 5 m

Güncel hava durumu gözlemi

Rapor saat 21:00 UTC de 47 dakika önce yapıldı.
Rüzgar kuzey/kuzeybatıdan 8 kt
Sıcaklık 25°C
Nem 79%
Basınç 1014 hPa
Görüş mesafesi 10 km veya daha fazla

METAR: YBHM 162100Z AUTO 34008KT 9999 // NCD 25/21 Q1014

Saat: 07:47 (21:47 UTC)

Tahmin

Rapor saat 17:19 UTC de 4 saat ve 28 dakika önce yapıldı.
Ayın 16'si saat 18 UTC'den ayın 17'si saat 06 UTC'ye kadar geçerli Tahmin
Rüzgar kuzeydan 10 kt
Görüş mesafesi 10 km veya daha fazla
2500 ft yükseklikte parçalı bulutlu
Ayın 17'si saat 0100 UTC'den
Rüzgar kuzey/kuzeydoğudan 15 kt
Görüş mesafesi 10 km veya daha fazla
2500 ft yükseklikte az bulutlu

TAF: YBHM 161719Z 1618/1706 01010KT 9999 SCT025 FM170100 02015KT 9999 FEW025

4.000'den fazla havaalanı için hava durumu gözlemleri ve tahminleri (METAR ve TAF raporları).

Kullanılabilir istasyonlar harita üzerinde sarı ve kırmızı noktalarla gösterilir.

İstasyonun adını görmek için fareyi noktanın üzerinde gezdirin.

Sonrasında hava gözlem ve tahminlerini görmek için tıklayın.

Haritayı değiştirmek için: yaklaştırmak için siyah artı işaretli yeşil düğmeye ve uzaklaştırmak için de eksi işaretli düğmeye hızla tıklayın; bitişik haritalar için yeşil okları kullanın.


METAR-TAF: